sensor_id;sensor_type;location;lat;lon;timestamp;P1;durP1;ratioP1;P2;durP2;ratioP2
48621;SDS011;34421;48.944;9.460;2023-12-29T00:01:30;2.60;;;0.95;;
48621;SDS011;34421;48.944;9.460;2023-12-29T00:03:56;0.88;;;0.50;;
48621;SDS011;34421;48.944;9.460;2023-12-29T00:06:21;1.35;;;0.50;;
48621;SDS011;34421;48.944;9.460;2023-12-29T00:08:46;0.98;;;0.38;;
48621;SDS011;34421;48.944;9.460;2023-12-29T00:11:21;1.55;;;0.47;;
48621;SDS011;34421;48.944;9.460;2023-12-29T00:13:47;0.65;;;0.30;;
48621;SDS011;34421;48.944;9.460;2023-12-29T00:16:12;1.20;;;0.50;;
48621;SDS011;34421;48.944;9.460;2023-12-29T00:18:38;1.35;;;0.52;;
48621;SDS011;34421;48.944;9.460;2023-12-29T00:21:04;1.70;;;0.60;;
48621;SDS011;34421;48.944;9.460;2023-12-29T00:23:30;1.40;;;0.65;;
48621;SDS011;34421;48.944;9.460;2023-12-29T00:25:55;1.90;;;0.70;;
48621;SDS011;34421;48.944;9.460;2023-12-29T00:28:20;1.17;;;0.50;;
48621;SDS011;34421;48.944;9.460;2023-12-29T00:30:46;1.55;;;0.60;;
48621;SDS011;34421;48.944;9.460;2023-12-29T00:33:11;1.00;;;0.50;;
48621;SDS011;34421;48.944;9.460;2023-12-29T00:35:37;1.60;;;0.70;;
48621;SDS011;34421;48.944;9.460;2023-12-29T00:38:04;1.08;;;0.52;;
48621;SDS011;34421;48.944;9.460;2023-12-29T00:40:29;1.00;;;0.50;;
48621;SDS011;34421;48.944;9.460;2023-12-29T00:42:54;1.67;;;0.50;;
48621;SDS011;34421;48.944;9.460;2023-12-29T00:45:20;1.35;;;0.73;;
48621;SDS011;34421;48.944;9.460;2023-12-29T00:47:46;1.23;;;0.60;;
48621;SDS011;34421;48.944;9.460;2023-12-29T00:50:13;0.75;;;0.43;;
48621;SDS011;34421;48.944;9.460;2023-12-29T00:52:38;1.48;;;0.65;;
48621;SDS011;34421;48.944;9.460;2023-12-29T00:55:04;1.52;;;0.70;;
48621;SDS011;34421;48.944;9.460;2023-12-29T00:57:30;0.90;;;0.40;;
48621;SDS011;34421;48.944;9.460;2023-12-29T00:59:55;1.13;;;0.52;;
48621;SDS011;34421;48.944;9.460;2023-12-29T01:02:20;0.80;;;0.40;;
48621;SDS011;34421;48.944;9.460;2023-12-29T01:04:45;1.33;;;0.60;;
48621;SDS011;34421;48.944;9.460;2023-12-29T01:07:11;1.13;;;0.60;;
48621;SDS011;34421;48.944;9.460;2023-12-29T01:09:39;1.70;;;0.57;;
48621;SDS011;34421;48.944;9.460;2023-12-29T01:12:07;1.55;;;0.65;;
48621;SDS011;34421;48.944;9.460;2023-12-29T01:14:33;1.25;;;0.60;;
48621;SDS011;34421;48.944;9.460;2023-12-29T01:16:58;1.60;;;0.68;;
48621;SDS011;34421;48.944;9.460;2023-12-29T01:19:23;2.35;;;0.88;;
48621;SDS011;34421;48.944;9.460;2023-12-29T01:21:49;1.42;;;0.73;;
48621;SDS011;34421;48.944;9.460;2023-12-29T01:24:14;1.58;;;0.73;;
48621;SDS011;34421;48.944;9.460;2023-12-29T01:26:39;0.98;;;0.40;;
48621;SDS011;34421;48.944;9.460;2023-12-29T01:29:05;1.48;;;0.73;;
48621;SDS011;34421;48.944;9.460;2023-12-29T01:31:31;1.33;;;0.70;;
48621;SDS011;34421;48.944;9.460;2023-12-29T01:33:57;0.90;;;0.55;;
48621;SDS011;34421;48.944;9.460;2023-12-29T01:36:23;1.52;;;0.60;;
48621;SDS011;34421;48.944;9.460;2023-12-29T01:38:48;1.33;;;0.50;;
48621;SDS011;34421;48.944;9.460;2023-12-29T01:41:14;0.75;;;0.45;;
48621;SDS011;34421;48.944;9.460;2023-12-29T01:44:12;1.92;;;0.90;;
48621;SDS011;34421;48.944;9.460;2023-12-29T01:46:40;1.35;;;0.70;;
48621;SDS011;34421;48.944;9.460;2023-12-29T01:49:06;1.70;;;0.50;;
48621;SDS011;34421;48.944;9.460;2023-12-29T01:51:31;1.23;;;0.52;;
48621;SDS011;34421;48.944;9.460;2023-12-29T01:53:57;1.48;;;0.70;;
48621;SDS011;34421;48.944;9.460;2023-12-29T01:56:24;0.70;;;0.40;;
48621;SDS011;34421;48.944;9.460;2023-12-29T01:58:50;1.70;;;0.85;;
48621;SDS011;34421;48.944;9.460;2023-12-29T02:01:16;1.40;;;0.60;;
48621;SDS011;34421;48.944;9.460;2023-12-29T02:03:44;0.80;;;0.50;;
48621;SDS011;34421;48.944;9.460;2023-12-29T02:06:10;1.65;;;0.50;;
48621;SDS011;34421;48.944;9.460;2023-12-29T02:08:38;1.20;;;0.68;;
48621;SDS011;34421;48.944;9.460;2023-12-29T02:11:05;1.52;;;0.75;;
48621;SDS011;34421;48.944;9.460;2023-12-29T02:13:31;1.45;;;0.55;;
48621;SDS011;34421;48.944;9.460;2023-12-29T02:15:58;1.58;;;0.52;;
48621;SDS011;34421;48.944;9.460;2023-12-29T02:18:30;1.48;;;0.63;;
48621;SDS011;34421;48.944;9.460;2023-12-29T02:20:57;1.83;;;0.93;;
48621;SDS011;34421;48.944;9.460;2023-12-29T02:23:23;1.88;;;0.88;;
48621;SDS011;34421;48.944;9.460;2023-12-29T02:25:48;1.95;;;0.73;;
48621;SDS011;34421;48.944;9.460;2023-12-29T02:28:15;1.33;;;0.70;;
48621;SDS011;34421;48.944;9.460;2023-12-29T02:30:49;1.98;;;0.88;;
48621;SDS011;34421;48.944;9.460;2023-12-29T02:33:25;1.42;;;0.88;;
48621;SDS011;34421;48.944;9.460;2023-12-29T02:35:53;1.17;;;0.60;;
48621;SDS011;34421;48.944;9.460;2023-12-29T02:38:21;2.47;;;0.80;;
48621;SDS011;34421;48.944;9.460;2023-12-29T02:40:47;1.38;;;0.65;;
48621;SDS011;34421;48.944;9.460;2023-12-29T02:43:12;1.40;;;0.68;;
48621;SDS011;34421;48.944;9.460;2023-12-29T02:45:38;2.45;;;1.00;;
48621;SDS011;34421;48.944;9.460;2023-12-29T02:48:03;1.35;;;0.70;;
48621;SDS011;34421;48.944;9.460;2023-12-29T02:50:29;2.50;;;0.82;;
48621;SDS011;34421;48.944;9.460;2023-12-29T02:52:54;1.73;;;1.05;;
48621;SDS011;34421;48.944;9.460;2023-12-29T02:55:19;3.78;;;0.90;;
48621;SDS011;34421;48.944;9.460;2023-12-29T02:57:45;2.58;;;0.75;;
48621;SDS011;34421;48.944;9.460;2023-12-29T03:00:10;1.65;;;0.70;;
48621;SDS011;34421;48.944;9.460;2023-12-29T03:02:36;1.27;;;0.60;;
48621;SDS011;34421;48.944;9.460;2023-12-29T03:05:01;2.90;;;0.90;;
48621;SDS011;34421;48.944;9.460;2023-12-29T03:07:27;1.85;;;0.85;;
48621;SDS011;34421;48.944;9.460;2023-12-29T03:09:52;1.63;;;0.70;;
48621;SDS011;34421;48.944;9.460;2023-12-29T03:12:18;1.75;;;0.75;;
48621;SDS011;34421;48.944;9.460;2023-12-29T03:14:43;2.20;;;0.90;;
48621;SDS011;34421;48.944;9.460;2023-12-29T03:17:09;2.22;;;0.90;;
48621;SDS011;34421;48.944;9.460;2023-12-29T03:19:35;3.35;;;1.27;;
48621;SDS011;34421;48.944;9.460;2023-12-29T03:22:01;1.45;;;0.75;;
48621;SDS011;34421;48.944;9.460;2023-12-29T03:24:26;1.60;;;0.85;;
48621;SDS011;34421;48.944;9.460;2023-12-29T03:26:52;1.55;;;0.70;;
48621;SDS011;34421;48.944;9.460;2023-12-29T03:29:18;1.95;;;0.90;;
48621;SDS011;34421;48.944;9.460;2023-12-29T03:31:43;2.80;;;0.75;;
48621;SDS011;34421;48.944;9.460;2023-12-29T03:34:08;2.83;;;1.13;;
48621;SDS011;34421;48.944;9.460;2023-12-29T03:36:34;1.27;;;0.73;;
48621;SDS011;34421;48.944;9.460;2023-12-29T03:38:59;2.72;;;0.88;;
48621;SDS011;34421;48.944;9.460;2023-12-29T03:41:25;2.05;;;0.93;;
48621;SDS011;34421;48.944;9.460;2023-12-29T03:43:50;2.25;;;1.05;;
48621;SDS011;34421;48.944;9.460;2023-12-29T03:46:16;1.33;;;0.70;;
48621;SDS011;34421;48.944;9.460;2023-12-29T03:48:42;1.30;;;0.90;;
48621;SDS011;34421;48.944;9.460;2023-12-29T03:51:07;2.33;;;1.08;;
48621;SDS011;34421;48.944;9.460;2023-12-29T03:53:33;1.60;;;0.90;;
48621;SDS011;34421;48.944;9.460;2023-12-29T03:55:58;2.17;;;0.98;;
48621;SDS011;34421;48.944;9.460;2023-12-29T03:58:23;2.25;;;1.08;;
48621;SDS011;34421;48.944;9.460;2023-12-29T04:00:49;2.53;;;1.20;;
48621;SDS011;34421;48.944;9.460;2023-12-29T04:03:14;1.67;;;0.82;;
48621;SDS011;34421;48.944;9.460;2023-12-29T04:05:39;1.85;;;0.93;;
48621;SDS011;34421;48.944;9.460;2023-12-29T04:08:04;1.67;;;0.88;;
48621;SDS011;34421;48.944;9.460;2023-12-29T04:10:30;1.85;;;0.80;;
48621;SDS011;34421;48.944;9.460;2023-12-29T04:12:55;2.33;;;1.02;;
48621;SDS011;34421;48.944;9.460;2023-12-29T04:15:21;1.10;;;0.60;;
48621;SDS011;34421;48.944;9.460;2023-12-29T04:17:46;1.73;;;1.00;;
48621;SDS011;34421;48.944;9.460;2023-12-29T04:20:11;2.22;;;1.00;;
48621;SDS011;34421;48.944;9.460;2023-12-29T04:22:37;2.00;;;0.95;;
48621;SDS011;34421;48.944;9.460;2023-12-29T04:25:02;1.85;;;0.80;;
48621;SDS011;34421;48.944;9.460;2023-12-29T04:27:27;1.48;;;0.75;;
48621;SDS011;34421;48.944;9.460;2023-12-29T04:29:53;1.63;;;0.88;;
48621;SDS011;34421;48.944;9.460;2023-12-29T04:32:18;1.52;;;0.68;;
48621;SDS011;34421;48.944;9.460;2023-12-29T04:34:44;1.85;;;0.90;;
48621;SDS011;34421;48.944;9.460;2023-12-29T04:37:09;2.47;;;0.85;;
48621;SDS011;34421;48.944;9.460;2023-12-29T04:39:34;1.52;;;0.60;;
48621;SDS011;34421;48.944;9.460;2023-12-29T04:42:00;1.20;;;0.73;;
48621;SDS011;34421;48.944;9.460;2023-12-29T04:44:25;1.30;;;0.70;;
48621;SDS011;34421;48.944;9.460;2023-12-29T04:46:50;1.27;;;0.60;;
48621;SDS011;34421;48.944;9.460;2023-12-29T04:49:15;1.27;;;0.65;;
48621;SDS011;34421;48.944;9.460;2023-12-29T04:51:41;2.88;;;1.25;;
48621;SDS011;34421;48.944;9.460;2023-12-29T04:54:06;1.85;;;0.90;;
48621;SDS011;34421;48.944;9.460;2023-12-29T04:56:31;1.45;;;0.75;;
48621;SDS011;34421;48.944;9.460;2023-12-29T04:58:57;1.48;;;0.80;;
48621;SDS011;34421;48.944;9.460;2023-12-29T05:01:22;1.38;;;0.70;;
48621;SDS011;34421;48.944;9.460;2023-12-29T05:03:47;1.42;;;0.65;;
48621;SDS011;34421;48.944;9.460;2023-12-29T05:06:13;1.55;;;0.75;;
48621;SDS011;34421;48.944;9.460;2023-12-29T05:08:38;1.30;;;0.65;;
48621;SDS011;34421;48.944;9.460;2023-12-29T05:11:03;1.48;;;0.65;;
48621;SDS011;34421;48.944;9.460;2023-12-29T05:13:29;1.42;;;0.60;;
48621;SDS011;34421;48.944;9.460;2023-12-29T05:15:54;1.42;;;0.70;;
48621;SDS011;34421;48.944;9.460;2023-12-29T05:18:19;0.82;;;0.40;;
48621;SDS011;34421;48.944;9.460;2023-12-29T05:20:45;1.13;;;0.50;;
48621;SDS011;34421;48.944;9.460;2023-12-29T05:23:10;0.95;;;0.30;;
48621;SDS011;34421;48.944;9.460;2023-12-29T05:25:36;1.02;;;0.60;;
48621;SDS011;34421;48.944;9.460;2023-12-29T05:28:01;1.42;;;0.60;;
48621;SDS011;34421;48.944;9.460;2023-12-29T05:30:27;1.10;;;0.50;;
48621;SDS011;34421;48.944;9.460;2023-12-29T05:32:52;2.08;;;0.60;;
48621;SDS011;34421;48.944;9.460;2023-12-29T05:35:18;1.35;;;0.60;;
48621;SDS011;34421;48.944;9.460;2023-12-29T05:37:43;0.80;;;0.50;;
48621;SDS011;34421;48.944;9.460;2023-12-29T05:40:09;1.08;;;0.50;;
48621;SDS011;34421;48.944;9.460;2023-12-29T05:42:34;0.75;;;0.40;;
48621;SDS011;34421;48.944;9.460;2023-12-29T05:45:00;1.67;;;0.47;;
48621;SDS011;34421;48.944;9.460;2023-12-29T05:47:25;1.40;;;0.30;;
48621;SDS011;34421;48.944;9.460;2023-12-29T05:49:50;1.75;;;0.60;;
48621;SDS011;34421;48.944;9.460;2023-12-29T05:52:16;1.13;;;0.57;;
48621;SDS011;34421;48.944;9.460;2023-12-29T05:54:41;1.60;;;0.50;;
48621;SDS011;34421;48.944;9.460;2023-12-29T05:57:07;1.30;;;0.60;;
48621;SDS011;34421;48.944;9.460;2023-12-29T05:59:32;1.67;;;0.60;;
48621;SDS011;34421;48.944;9.460;2023-12-29T06:01:57;1.30;;;0.55;;
48621;SDS011;34421;48.944;9.460;2023-12-29T06:04:23;1.23;;;0.63;;
48621;SDS011;34421;48.944;9.460;2023-12-29T06:06:48;1.58;;;0.45;;
48621;SDS011;34421;48.944;9.460;2023-12-29T06:09:14;1.33;;;0.50;;
48621;SDS011;34421;48.944;9.460;2023-12-29T06:11:39;1.20;;;0.43;;
48621;SDS011;34421;48.944;9.460;2023-12-29T06:14:04;1.10;;;0.60;;
48621;SDS011;34421;48.944;9.460;2023-12-29T06:16:30;1.75;;;0.75;;
48621;SDS011;34421;48.944;9.460;2023-12-29T06:18:55;1.30;;;0.80;;
48621;SDS011;34421;48.944;9.460;2023-12-29T06:21:21;0.80;;;0.50;;
48621;SDS011;34421;48.944;9.460;2023-12-29T06:23:46;1.70;;;0.52;;
48621;SDS011;34421;48.944;9.460;2023-12-29T06:26:16;1.50;;;0.80;;
48621;SDS011;34421;48.944;9.460;2023-12-29T06:28:42;1.05;;;0.57;;
48621;SDS011;34421;48.944;9.460;2023-12-29T06:31:07;1.45;;;0.60;;
48621;SDS011;34421;48.944;9.460;2023-12-29T06:33:32;1.55;;;0.73;;
48621;SDS011;34421;48.944;9.460;2023-12-29T06:35:58;1.98;;;0.82;;
48621;SDS011;34421;48.944;9.460;2023-12-29T06:38:23;1.00;;;0.50;;
48621;SDS011;34421;48.944;9.460;2023-12-29T06:40:48;2.60;;;0.63;;
48621;SDS011;34421;48.944;9.460;2023-12-29T06:43:14;0.95;;;0.52;;
48621;SDS011;34421;48.944;9.460;2023-12-29T06:45:39;1.95;;;0.77;;
48621;SDS011;34421;48.944;9.460;2023-12-29T06:48:04;2.25;;;0.70;;
48621;SDS011;34421;48.944;9.460;2023-12-29T06:50:30;3.53;;;1.00;;
48621;SDS011;34421;48.944;9.460;2023-12-29T06:52:56;3.75;;;2.10;;
48621;SDS011;34421;48.944;9.460;2023-12-29T06:55:21;4.38;;;1.98;;
48621;SDS011;34421;48.944;9.460;2023-12-29T06:57:46;6.53;;;2.42;;
48621;SDS011;34421;48.944;9.460;2023-12-29T07:00:12;3.60;;;2.00;;
48621;SDS011;34421;48.944;9.460;2023-12-29T07:02:38;3.40;;;1.45;;
48621;SDS011;34421;48.944;9.460;2023-12-29T07:05:05;3.45;;;1.60;;
48621;SDS011;34421;48.944;9.460;2023-12-29T07:07:31;1.80;;;0.77;;
48621;SDS011;34421;48.944;9.460;2023-12-29T07:09:56;1.95;;;0.70;;
48621;SDS011;34421;48.944;9.460;2023-12-29T07:12:21;1.80;;;0.85;;
48621;SDS011;34421;48.944;9.460;2023-12-29T07:14:47;2.05;;;0.95;;
48621;SDS011;34421;48.944;9.460;2023-12-29T07:17:12;1.63;;;0.80;;
48621;SDS011;34421;48.944;9.460;2023-12-29T07:19:38;3.05;;;1.17;;
48621;SDS011;34421;48.944;9.460;2023-12-29T07:22:04;1.75;;;0.80;;
48621;SDS011;34421;48.944;9.460;2023-12-29T07:24:31;1.35;;;0.65;;
48621;SDS011;34421;48.944;9.460;2023-12-29T07:26:57;1.45;;;0.77;;
48621;SDS011;34421;48.944;9.460;2023-12-29T07:29:22;2.35;;;0.88;;
48621;SDS011;34421;48.944;9.460;2023-12-29T07:31:48;2.40;;;0.95;;
48621;SDS011;34421;48.944;9.460;2023-12-29T07:34:14;2.35;;;0.80;;
48621;SDS011;34421;48.944;9.460;2023-12-29T07:36:39;1.77;;;0.80;;
48621;SDS011;34421;48.944;9.460;2023-12-29T07:39:05;1.52;;;0.82;;
48621;SDS011;34421;48.944;9.460;2023-12-29T07:41:31;1.75;;;0.75;;
48621;SDS011;34421;48.944;9.460;2023-12-29T07:43:56;1.52;;;0.70;;
48621;SDS011;34421;48.944;9.460;2023-12-29T07:46:25;1.85;;;0.98;;
48621;SDS011;34421;48.944;9.460;2023-12-29T07:48:51;1.35;;;0.60;;
48621;SDS011;34421;48.944;9.460;2023-12-29T07:51:17;1.60;;;0.70;;
48621;SDS011;34421;48.944;9.460;2023-12-29T07:53:43;2.15;;;1.08;;
48621;SDS011;34421;48.944;9.460;2023-12-29T07:56:09;2.25;;;1.00;;
48621;SDS011;34421;48.944;9.460;2023-12-29T07:58:35;1.05;;;0.80;;
48621;SDS011;34421;48.944;9.460;2023-12-29T08:01:01;1.92;;;0.90;;
48621;SDS011;34421;48.944;9.460;2023-12-29T08:03:26;1.63;;;0.93;;
48621;SDS011;34421;48.944;9.460;2023-12-29T08:05:51;1.20;;;0.60;;
48621;SDS011;34421;48.944;9.460;2023-12-29T08:08:17;1.52;;;0.90;;
48621;SDS011;34421;48.944;9.460;2023-12-29T08:10:42;2.53;;;1.17;;
48621;SDS011;34421;48.944;9.460;2023-12-29T08:13:07;0.90;;;0.70;;
48621;SDS011;34421;48.944;9.460;2023-12-29T08:15:34;1.85;;;0.90;;
48621;SDS011;34421;48.944;9.460;2023-12-29T08:18:00;0.90;;;0.40;;
48621;SDS011;34421;48.944;9.460;2023-12-29T08:20:25;1.35;;;0.40;;
48621;SDS011;34421;48.944;9.460;2023-12-29T08:22:51;1.65;;;0.38;;
48621;SDS011;34421;48.944;9.460;2023-12-29T08:25:16;1.55;;;0.52;;
48621;SDS011;34421;48.944;9.460;2023-12-29T08:27:41;1.40;;;0.57;;
48621;SDS011;34421;48.944;9.460;2023-12-29T08:30:07;0.65;;;0.32;;
48621;SDS011;34421;48.944;9.460;2023-12-29T08:32:33;0.90;;;0.40;;
48621;SDS011;34421;48.944;9.460;2023-12-29T08:34:58;1.02;;;0.50;;
48621;SDS011;34421;48.944;9.460;2023-12-29T08:37:24;0.73;;;0.38;;
48621;SDS011;34421;48.944;9.460;2023-12-29T08:39:49;0.73;;;0.52;;
48621;SDS011;34421;48.944;9.460;2023-12-29T08:42:15;1.20;;;0.63;;
48621;SDS011;34421;48.944;9.460;2023-12-29T08:44:41;0.75;;;0.50;;
48621;SDS011;34421;48.944;9.460;2023-12-29T08:47:06;1.05;;;0.40;;
48621;SDS011;34421;48.944;9.460;2023-12-29T08:49:38;0.82;;;0.40;;
48621;SDS011;34421;48.944;9.460;2023-12-29T08:52:03;0.73;;;0.40;;
48621;SDS011;34421;48.944;9.460;2023-12-29T08:54:29;1.30;;;0.50;;
48621;SDS011;34421;48.944;9.460;2023-12-29T08:56:54;1.25;;;0.38;;
48621;SDS011;34421;48.944;9.460;2023-12-29T08:59:20;0.85;;;0.40;;
48621;SDS011;34421;48.944;9.460;2023-12-29T09:01:45;1.23;;;0.60;;
48621;SDS011;34421;48.944;9.460;2023-12-29T09:04:10;2.00;;;0.50;;
48621;SDS011;34421;48.944;9.460;2023-12-29T09:06:36;1.25;;;0.50;;
48621;SDS011;34421;48.944;9.460;2023-12-29T09:09:01;1.20;;;0.50;;
48621;SDS011;34421;48.944;9.460;2023-12-29T09:11:26;1.15;;;0.70;;
48621;SDS011;34421;48.944;9.460;2023-12-29T09:13:52;1.00;;;0.40;;
48621;SDS011;34421;48.944;9.460;2023-12-29T09:16:17;0.95;;;0.50;;
48621;SDS011;34421;48.944;9.460;2023-12-29T09:18:43;1.25;;;0.50;;
48621;SDS011;34421;48.944;9.460;2023-12-29T09:21:08;1.50;;;0.60;;
48621;SDS011;34421;48.944;9.460;2023-12-29T09:23:35;1.70;;;0.55;;
48621;SDS011;34421;48.944;9.460;2023-12-29T09:26:02;1.27;;;0.50;;
48621;SDS011;34421;48.944;9.460;2023-12-29T09:28:27;0.80;;;0.60;;
48621;SDS011;34421;48.944;9.460;2023-12-29T09:30:53;1.05;;;0.38;;
48621;SDS011;34421;48.944;9.460;2023-12-29T09:33:18;1.02;;;0.40;;
48621;SDS011;34421;48.944;9.460;2023-12-29T09:35:43;0.38;;;0.30;;
48621;SDS011;34421;48.944;9.460;2023-12-29T09:38:09;2.05;;;0.90;;
48621;SDS011;34421;48.944;9.460;2023-12-29T09:40:35;1.23;;;0.60;;
48621;SDS011;34421;48.944;9.460;2023-12-29T09:43:00;0.70;;;0.40;;
48621;SDS011;34421;48.944;9.460;2023-12-29T09:45:29;1.40;;;0.65;;
48621;SDS011;34421;48.944;9.460;2023-12-29T09:47:55;0.93;;;0.40;;
48621;SDS011;34421;48.944;9.460;2023-12-29T09:50:22;0.38;;;0.30;;
48621;SDS011;34421;48.944;9.460;2023-12-29T09:52:50;0.85;;;0.40;;
48621;SDS011;34421;48.944;9.460;2023-12-29T09:55:17;0.93;;;0.50;;
48621;SDS011;34421;48.944;9.460;2023-12-29T09:57:44;1.40;;;0.50;;
48621;SDS011;34421;48.944;9.460;2023-12-29T10:00:12;1.50;;;0.68;;
48621;SDS011;34421;48.944;9.460;2023-12-29T10:02:40;1.25;;;0.57;;
48621;SDS011;34421;48.944;9.460;2023-12-29T10:05:06;1.25;;;0.55;;
48621;SDS011;34421;48.944;9.460;2023-12-29T10:07:37;1.15;;;0.50;;
48621;SDS011;34421;48.944;9.460;2023-12-29T10:10:03;1.05;;;0.50;;
48621;SDS011;34421;48.944;9.460;2023-12-29T10:12:29;1.08;;;0.50;;
48621;SDS011;34421;48.944;9.460;2023-12-29T10:23:13;1.20;;;0.50;;
48621;SDS011;34421;48.944;9.460;2023-12-29T10:25:43;1.00;;;0.45;;
48621;SDS011;34421;48.944;9.460;2023-12-29T10:28:09;1.10;;;0.40;;
48621;SDS011;34421;48.944;9.460;2023-12-29T10:30:35;0.90;;;0.40;;
48621;SDS011;34421;48.944;9.460;2023-12-29T10:33:01;0.73;;;0.32;;
48621;SDS011;34421;48.944;9.460;2023-12-29T10:35:29;0.75;;;0.30;;
48621;SDS011;34421;48.944;9.460;2023-12-29T10:37:54;0.65;;;0.40;;
48621;SDS011;34421;48.944;9.460;2023-12-29T10:40:20;0.85;;;0.30;;
48621;SDS011;34421;48.944;9.460;2023-12-29T10:42:52;0.75;;;0.40;;
48621;SDS011;34421;48.944;9.460;2023-12-29T10:45:18;0.45;;;0.25;;
48621;SDS011;34421;48.944;9.460;2023-12-29T10:47:44;0.35;;;0.20;;
48621;SDS011;34421;48.944;9.460;2023-12-29T10:50:09;0.20;;;0.20;;
48621;SDS011;34421;48.944;9.460;2023-12-29T10:52:35;0.88;;;0.40;;
48621;SDS011;34421;48.944;9.460;2023-12-29T10:55:09;0.40;;;0.20;;
48621;SDS011;34421;48.944;9.460;2023-12-29T11:00:04;0.40;;;0.28;;
48621;SDS011;34421;48.944;9.460;2023-12-29T11:02:34;0.40;;;0.20;;
48621;SDS011;34421;48.944;9.460;2023-12-29T11:07:34;0.50;;;0.30;;
48621;SDS011;34421;48.944;9.460;2023-12-29T11:10:01;0.52;;;0.20;;
48621;SDS011;34421;48.944;9.460;2023-12-29T11:12:31;0.52;;;0.25;;
48621;SDS011;34421;48.944;9.460;2023-12-29T11:14:59;0.25;;;0.10;;
48621;SDS011;34421;48.944;9.460;2023-12-29T11:17:26;0.70;;;0.20;;
48621;SDS011;34421;48.944;9.460;2023-12-29T11:19:54;1.27;;;0.30;;
48621;SDS011;34421;48.944;9.460;2023-12-29T11:22:20;0.47;;;0.20;;
48621;SDS011;34421;48.944;9.460;2023-12-29T11:24:47;0.30;;;0.20;;
48621;SDS011;34421;48.944;9.460;2023-12-29T11:27:13;0.43;;;0.10;;
48621;SDS011;34421;48.944;9.460;2023-12-29T11:29:40;0.30;;;0.20;;
48621;SDS011;34421;48.944;9.460;2023-12-29T11:32:07;0.55;;;0.20;;
48621;SDS011;34421;48.944;9.460;2023-12-29T11:34:45;0.55;;;0.20;;
48621;SDS011;34421;48.944;9.460;2023-12-29T11:37:27;0.40;;;0.20;;
48621;SDS011;34421;48.944;9.460;2023-12-29T11:42:38;1.05;;;0.25;;
48621;SDS011;34421;48.944;9.460;2023-12-29T11:47:53;0.30;;;0.20;;
48621;SDS011;34421;48.944;9.460;2023-12-29T11:50:34;0.38;;;0.15;;
48621;SDS011;34421;48.944;9.460;2023-12-29T11:53:05;0.50;;;0.20;;
48621;SDS011;34421;48.944;9.460;2023-12-29T11:55:35;0.85;;;0.20;;
48621;SDS011;34421;48.944;9.460;2023-12-29T11:58:04;0.17;;;0.17;;
48621;SDS011;34421;48.944;9.460;2023-12-29T12:00:45;0.45;;;0.20;;
48621;SDS011;34421;48.944;9.460;2023-12-29T12:05:47;0.35;;;0.20;;
48621;SDS011;34421;48.944;9.460;2023-12-29T12:13:59;0.65;;;0.20;;
48621;SDS011;34421;48.944;9.460;2023-12-29T12:19:12;0.30;;;0.20;;
48621;SDS011;34421;48.944;9.460;2023-12-29T12:21:38;1.17;;;0.25;;
48621;SDS011;34421;48.944;9.460;2023-12-29T12:24:04;0.22;;;0.20;;
48621;SDS011;34421;48.944;9.460;2023-12-29T12:26:33;0.63;;;0.30;;
48621;SDS011;34421;48.944;9.460;2023-12-29T12:28:59;0.35;;;0.20;;
48621;SDS011;34421;48.944;9.460;2023-12-29T12:31:25;0.68;;;0.25;;
48621;SDS011;34421;48.944;9.460;2023-12-29T12:33:55;0.28;;;0.10;;
48621;SDS011;34421;48.944;9.460;2023-12-29T12:36:21;0.30;;;0.20;;
48621;SDS011;34421;48.944;9.460;2023-12-29T12:38:50;0.55;;;0.20;;
48621;SDS011;34421;48.944;9.460;2023-12-29T12:41:17;0.52;;;0.20;;
48621;SDS011;34421;48.944;9.460;2023-12-29T12:43:43;0.43;;;0.20;;
48621;SDS011;34421;48.944;9.460;2023-12-29T12:46:19;1.08;;;0.30;;
48621;SDS011;34421;48.944;9.460;2023-12-29T12:48:50;0.35;;;0.20;;
48621;SDS011;34421;48.944;9.460;2023-12-29T12:51:15;0.32;;;0.17;;
48621;SDS011;34421;48.944;9.460;2023-12-29T12:53:44;0.73;;;0.20;;
48621;SDS011;34421;48.944;9.460;2023-12-29T12:56:09;0.30;;;0.20;;
48621;SDS011;34421;48.944;9.460;2023-12-29T12:58:35;0.28;;;0.10;;
48621;SDS011;34421;48.944;9.460;2023-12-29T13:01:01;0.10;;;0.10;;
48621;SDS011;34421;48.944;9.460;2023-12-29T13:03:27;0.47;;;0.10;;
48621;SDS011;34421;48.944;9.460;2023-12-29T13:05:53;0.30;;;0.20;;
48621;SDS011;34421;48.944;9.460;2023-12-29T13:08:19;0.10;;;0.10;;
48621;SDS011;34421;48.944;9.460;2023-12-29T13:10:45;0.45;;;0.20;;
48621;SDS011;34421;48.944;9.460;2023-12-29T13:13:10;1.00;;;0.35;;
48621;SDS011;34421;48.944;9.460;2023-12-29T13:15:44;0.90;;;0.32;;
48621;SDS011;34421;48.944;9.460;2023-12-29T13:18:14;1.23;;;0.32;;
48621;SDS011;34421;48.944;9.460;2023-12-29T13:20:46;0.90;;;0.40;;
48621;SDS011;34421;48.944;9.460;2023-12-29T13:23:13;0.60;;;0.28;;
48621;SDS011;34421;48.944;9.460;2023-12-29T13:25:39;0.70;;;0.30;;
48621;SDS011;34421;48.944;9.460;2023-12-29T13:28:05;0.57;;;0.30;;
48621;SDS011;34421;48.944;9.460;2023-12-29T13:30:31;0.93;;;0.30;;
48621;SDS011;34421;48.944;9.460;2023-12-29T13:32:58;0.70;;;0.30;;
48621;SDS011;34421;48.944;9.460;2023-12-29T13:35:25;0.20;;;0.10;;
48621;SDS011;34421;48.944;9.460;2023-12-29T13:38:09;0.65;;;0.20;;
48621;SDS011;34421;48.944;9.460;2023-12-29T13:43:32;1.45;;;0.32;;
48621;SDS011;34421;48.944;9.460;2023-12-29T13:46:00;0.70;;;0.20;;
48621;SDS011;34421;48.944;9.460;2023-12-29T13:48:27;0.47;;;0.30;;
48621;SDS011;34421;48.944;9.460;2023-12-29T13:50:54;0.47;;;0.20;;
48621;SDS011;34421;48.944;9.460;2023-12-29T13:53:19;0.68;;;0.30;;
48621;SDS011;34421;48.944;9.460;2023-12-29T13:55:46;3.35;;;0.68;;
48621;SDS011;34421;48.944;9.460;2023-12-29T13:58:11;0.90;;;0.30;;
48621;SDS011;34421;48.944;9.460;2023-12-29T14:00:38;0.40;;;0.20;;
48621;SDS011;34421;48.944;9.460;2023-12-29T14:03:15;0.57;;;0.32;;
48621;SDS011;34421;48.944;9.460;2023-12-29T14:10:58;0.20;;;0.10;;
48621;SDS011;34421;48.944;9.460;2023-12-29T14:13:24;0.90;;;0.30;;
48621;SDS011;34421;48.944;9.460;2023-12-29T14:15:50;0.77;;;0.30;;
48621;SDS011;34421;48.944;9.460;2023-12-29T14:20:46;0.88;;;0.35;;
48621;SDS011;34421;48.944;9.460;2023-12-29T14:23:11;0.55;;;0.20;;
48621;SDS011;34421;48.944;9.460;2023-12-29T14:25:38;0.40;;;0.20;;
48621;SDS011;34421;48.944;9.460;2023-12-29T14:28:04;1.73;;;0.30;;
48621;SDS011;34421;48.944;9.460;2023-12-29T14:33:05;1.03;;;0.50;;
48621;SDS011;34421;48.944;9.460;2023-12-29T14:35:30;0.68;;;0.28;;
48621;SDS011;34421;48.944;9.460;2023-12-29T14:37:55;0.75;;;0.30;;
48621;SDS011;34421;48.944;9.460;2023-12-29T14:40:21;0.73;;;0.28;;
48621;SDS011;34421;48.944;9.460;2023-12-29T14:42:47;0.77;;;0.40;;
48621;SDS011;34421;48.944;9.460;2023-12-29T14:45:12;1.30;;;0.50;;
48621;SDS011;34421;48.944;9.460;2023-12-29T14:47:37;1.33;;;0.38;;
48621;SDS011;34421;48.944;9.460;2023-12-29T14:50:03;1.23;;;0.80;;
48621;SDS011;34421;48.944;9.460;2023-12-29T14:52:28;0.90;;;0.40;;
48621;SDS011;34421;48.944;9.460;2023-12-29T14:54:53;1.05;;;0.40;;
48621;SDS011;34421;48.944;9.460;2023-12-29T14:57:19;0.65;;;0.40;;
48621;SDS011;34421;48.944;9.460;2023-12-29T14:59:44;0.57;;;0.30;;
48621;SDS011;34421;48.944;9.460;2023-12-29T15:02:09;0.43;;;0.20;;
48621;SDS011;34421;48.944;9.460;2023-12-29T15:04:35;0.90;;;0.28;;
48621;SDS011;34421;48.944;9.460;2023-12-29T15:07:01;1.27;;;0.35;;
48621;SDS011;34421;48.944;9.460;2023-12-29T15:09:27;0.73;;;0.38;;
48621;SDS011;34421;48.944;9.460;2023-12-29T15:11:52;2.10;;;0.43;;
48621;SDS011;34421;48.944;9.460;2023-12-29T15:14:19;0.47;;;0.25;;
48621;SDS011;34421;48.944;9.460;2023-12-29T15:16:45;0.50;;;0.30;;
48621;SDS011;34421;48.944;9.460;2023-12-29T15:19:11;0.57;;;0.20;;
48621;SDS011;34421;48.944;9.460;2023-12-29T15:21:37;0.43;;;0.30;;
48621;SDS011;34421;48.944;9.460;2023-12-29T15:24:04;0.77;;;0.30;;
48621;SDS011;34421;48.944;9.460;2023-12-29T15:26:29;0.55;;;0.20;;